sensor_id;sensor_type;location;lat;lon;timestamp;P1;durP1;ratioP1;P2;durP2;ratioP2
13933;SDS011;7039;52.168;9.866;2022-07-05T03:37:45;4.70;;;2.70;;
13933;SDS011;7039;52.168;9.866;2022-07-05T03:40:11;4.07;;;2.40;;
13933;SDS011;7039;52.168;9.866;2022-07-05T03:42:38;3.37;;;2.40;;
13933;SDS011;7039;52.168;9.866;2022-07-05T03:45:05;5.30;;;2.13;;
13933;SDS011;7039;52.168;9.866;2022-07-05T03:47:32;3.50;;;2.40;;
13933;SDS011;7039;52.168;9.866;2022-07-05T03:49:58;4.37;;;2.60;;
13933;SDS011;7039;52.168;9.866;2022-07-05T03:52:25;3.40;;;2.80;;
13933;SDS011;7039;52.168;9.866;2022-07-05T03:54:53;3.80;;;2.80;;
13933;SDS011;7039;52.168;9.866;2022-07-05T03:57:19;6.80;;;3.03;;
13933;SDS011;7039;52.168;9.866;2022-07-05T03:59:46;8.63;;;3.40;;
13933;SDS011;7039;52.168;9.866;2022-07-05T04:02:12;7.10;;;3.07;;
13933;SDS011;7039;52.168;9.866;2022-07-05T04:04:39;4.63;;;2.77;;
13933;SDS011;7039;52.168;9.866;2022-07-05T04:07:05;4.67;;;3.17;;
13933;SDS011;7039;52.168;9.866;2022-07-05T04:09:32;4.47;;;3.10;;
13933;SDS011;7039;52.168;9.866;2022-07-05T04:12:00;3.67;;;3.20;;
13933;SDS011;7039;52.168;9.866;2022-07-05T04:14:26;10.23;;;3.00;;
13933;SDS011;7039;52.168;9.866;2022-07-05T04:16:53;6.67;;;3.50;;
13933;SDS011;7039;52.168;9.866;2022-07-05T04:19:19;4.33;;;2.83;;
13933;SDS011;7039;52.168;9.866;2022-07-05T04:21:46;5.47;;;3.10;;
13933;SDS011;7039;52.168;9.866;2022-07-05T04:24:12;7.17;;;3.00;;
13933;SDS011;7039;52.168;9.866;2022-07-05T04:26:39;3.97;;;2.83;;
13933;SDS011;7039;52.168;9.866;2022-07-05T04:29:06;4.00;;;2.60;;
13933;SDS011;7039;52.168;9.866;2022-07-05T04:31:33;5.00;;;3.10;;
13933;SDS011;7039;52.168;9.866;2022-07-05T04:34:00;5.97;;;3.00;;
13933;SDS011;7039;52.168;9.866;2022-07-05T04:36:27;4.30;;;2.70;;
13933;SDS011;7039;52.168;9.866;2022-07-05T04:38:53;8.70;;;3.27;;
13933;SDS011;7039;52.168;9.866;2022-07-05T04:41:20;3.97;;;2.70;;
13933;SDS011;7039;52.168;9.866;2022-07-05T04:43:46;6.10;;;3.47;;
13933;SDS011;7039;52.168;9.866;2022-07-05T04:46:14;4.90;;;3.00;;
13933;SDS011;7039;52.168;9.866;2022-07-05T04:48:41;4.80;;;3.20;;
13933;SDS011;7039;52.168;9.866;2022-07-05T04:51:07;3.90;;;3.50;;
13933;SDS011;7039;52.168;9.866;2022-07-05T04:53:34;8.97;;;2.80;;
13933;SDS011;7039;52.168;9.866;2022-07-05T04:56:00;5.23;;;3.33;;
13933;SDS011;7039;52.168;9.866;2022-07-05T04:58:27;7.50;;;3.60;;
13933;SDS011;7039;52.168;9.866;2022-07-05T05:00:53;6.47;;;3.80;;
13933;SDS011;7039;52.168;9.866;2022-07-05T05:03:21;15.47;;;3.67;;
13933;SDS011;7039;52.168;9.866;2022-07-05T05:05:48;10.17;;;3.80;;
13933;SDS011;7039;52.168;9.866;2022-07-05T05:08:14;9.80;;;3.93;;
13933;SDS011;7039;52.168;9.866;2022-07-05T05:10:41;9.40;;;3.70;;
13933;SDS011;7039;52.168;9.866;2022-07-05T05:13:07;7.83;;;3.80;;
13933;SDS011;7039;52.168;9.866;2022-07-05T05:15:34;8.07;;;3.53;;
13933;SDS011;7039;52.168;9.866;2022-07-05T05:18:00;9.57;;;3.60;;
13933;SDS011;7039;52.168;9.866;2022-07-05T05:20:28;5.83;;;3.17;;
13933;SDS011;7039;52.168;9.866;2022-07-05T05:25:56;6.43;;;3.17;;
13933;SDS011;7039;52.168;9.866;2022-07-05T05:28:22;9.43;;;4.07;;
13933;SDS011;7039;52.168;9.866;2022-07-05T05:30:49;7.43;;;4.03;;
13933;SDS011;7039;52.168;9.866;2022-07-05T05:33:15;6.53;;;2.93;;
13933;SDS011;7039;52.168;9.866;2022-07-05T05:35:44;11.00;;;3.97;;
13933;SDS011;7039;52.168;9.866;2022-07-05T05:38:10;12.87;;;3.53;;
13933;SDS011;7039;52.168;9.866;2022-07-05T05:40:37;9.63;;;3.83;;
13933;SDS011;7039;52.168;9.866;2022-07-05T05:43:05;6.67;;;3.80;;
13933;SDS011;7039;52.168;9.866;2022-07-05T05:45:32;6.83;;;3.60;;
13933;SDS011;7039;52.168;9.866;2022-07-05T05:47:58;9.33;;;4.57;;
13933;SDS011;7039;52.168;9.866;2022-07-05T05:50:26;12.97;;;4.20;;
13933;SDS011;7039;52.168;9.866;2022-07-05T05:52:55;6.63;;;4.43;;
13933;SDS011;7039;52.168;9.866;2022-07-05T05:55:22;6.03;;;4.10;;
13933;SDS011;7039;52.168;9.866;2022-07-05T05:57:49;13.60;;;3.97;;
13933;SDS011;7039;52.168;9.866;2022-07-05T06:00:16;13.87;;;4.63;;
13933;SDS011;7039;52.168;9.866;2022-07-05T06:02:43;10.37;;;4.50;;
13933;SDS011;7039;52.168;9.866;2022-07-05T06:05:11;9.27;;;3.80;;
13933;SDS011;7039;52.168;9.866;2022-07-05T06:10:24;8.70;;;3.67;;
13933;SDS011;7039;52.168;9.866;2022-07-05T06:12:53;6.47;;;3.70;;
13933;SDS011;7039;52.168;9.866;2022-07-05T06:15:21;5.23;;;3.37;;
13933;SDS011;7039;52.168;9.866;2022-07-05T06:17:48;5.60;;;3.20;;
13933;SDS011;7039;52.168;9.866;2022-07-05T06:20:16;10.07;;;3.97;;
13933;SDS011;7039;52.168;9.866;2022-07-05T06:22:44;7.33;;;3.90;;
13933;SDS011;7039;52.168;9.866;2022-07-05T06:25:12;9.37;;;3.97;;
13933;SDS011;7039;52.168;9.866;2022-07-05T06:27:39;9.07;;;4.30;;
13933;SDS011;7039;52.168;9.866;2022-07-05T06:30:07;7.83;;;3.87;;
13933;SDS011;7039;52.168;9.866;2022-07-05T06:32:34;6.40;;;3.53;;
13933;SDS011;7039;52.168;9.866;2022-07-05T06:35:01;7.87;;;3.60;;
13933;SDS011;7039;52.168;9.866;2022-07-05T06:37:28;9.87;;;4.10;;
13933;SDS011;7039;52.168;9.866;2022-07-05T06:40:06;12.77;;;3.27;;
13933;SDS011;7039;52.168;9.866;2022-07-05T06:42:36;5.77;;;3.70;;
13933;SDS011;7039;52.168;9.866;2022-07-05T06:45:03;6.60;;;2.97;;
13933;SDS011;7039;52.168;9.866;2022-07-05T06:47:30;8.10;;;3.20;;
13933;SDS011;7039;52.168;9.866;2022-07-05T06:49:57;7.30;;;3.03;;
13933;SDS011;7039;52.168;9.866;2022-07-05T06:52:23;8.77;;;3.20;;
13933;SDS011;7039;52.168;9.866;2022-07-05T06:54:50;9.63;;;2.90;;
13933;SDS011;7039;52.168;9.866;2022-07-05T06:57:18;5.37;;;2.93;;
13933;SDS011;7039;52.168;9.866;2022-07-05T06:59:46;5.83;;;2.70;;
13933;SDS011;7039;52.168;9.866;2022-07-05T07:02:13;7.10;;;3.10;;
13933;SDS011;7039;52.168;9.866;2022-07-05T07:04:40;8.30;;;2.30;;
13933;SDS011;7039;52.168;9.866;2022-07-05T07:07:07;5.87;;;2.93;;
13933;SDS011;7039;52.168;9.866;2022-07-05T07:09:55;5.57;;;2.37;;
13933;SDS011;7039;52.168;9.866;2022-07-05T07:12:21;8.70;;;2.70;;
13933;SDS011;7039;52.168;9.866;2022-07-05T07:14:49;7.03;;;2.53;;
13933;SDS011;7039;52.168;9.866;2022-07-05T07:17:16;7.87;;;2.70;;
13933;SDS011;7039;52.168;9.866;2022-07-05T07:19:42;13.20;;;2.80;;
13933;SDS011;7039;52.168;9.866;2022-07-05T07:22:09;8.20;;;2.33;;
13933;SDS011;7039;52.168;9.866;2022-07-05T07:24:36;3.33;;;2.20;;
13933;SDS011;7039;52.168;9.866;2022-07-05T07:27:02;6.30;;;3.03;;
13933;SDS011;7039;52.168;9.866;2022-07-05T07:29:29;3.37;;;2.20;;
13933;SDS011;7039;52.168;9.866;2022-07-05T07:31:58;5.73;;;1.87;;
13933;SDS011;7039;52.168;9.866;2022-07-05T07:34:25;3.90;;;1.93;;
13933;SDS011;7039;52.168;9.866;2022-07-05T07:36:52;4.40;;;1.50;;
13933;SDS011;7039;52.168;9.866;2022-07-05T07:39:19;5.27;;;2.33;;
13933;SDS011;7039;52.168;9.866;2022-07-05T07:41:46;5.77;;;2.47;;
13933;SDS011;7039;52.168;9.866;2022-07-05T07:44:13;3.60;;;1.77;;
13933;SDS011;7039;52.168;9.866;2022-07-05T07:46:40;4.60;;;1.73;;
13933;SDS011;7039;52.168;9.866;2022-07-05T07:49:08;3.60;;;1.90;;
13933;SDS011;7039;52.168;9.866;2022-07-05T07:51:35;4.17;;;1.83;;
13933;SDS011;7039;52.168;9.866;2022-07-05T07:54:02;4.93;;;1.80;;
13933;SDS011;7039;52.168;9.866;2022-07-05T07:56:28;2.47;;;1.70;;
13933;SDS011;7039;52.168;9.866;2022-07-05T07:58:55;5.10;;;2.10;;
13933;SDS011;7039;52.168;9.866;2022-07-05T08:01:22;4.80;;;1.93;;
13933;SDS011;7039;52.168;9.866;2022-07-05T08:03:49;3.07;;;1.73;;
13933;SDS011;7039;52.168;9.866;2022-07-05T08:06:17;4.57;;;1.63;;
13933;SDS011;7039;52.168;9.866;2022-07-05T08:08:44;4.07;;;1.97;;
13933;SDS011;7039;52.168;9.866;2022-07-05T08:11:11;5.33;;;1.87;;
13933;SDS011;7039;52.168;9.866;2022-07-05T08:13:39;1.83;;;1.60;;
13933;SDS011;7039;52.168;9.866;2022-07-05T08:16:07;3.87;;;2.00;;
13933;SDS011;7039;52.168;9.866;2022-07-05T08:18:34;2.87;;;1.93;;
13933;SDS011;7039;52.168;9.866;2022-07-05T08:21:25;6.53;;;1.80;;
13933;SDS011;7039;52.168;9.866;2022-07-05T08:24:00;3.83;;;2.10;;
13933;SDS011;7039;52.168;9.866;2022-07-05T08:26:28;4.80;;;2.20;;
13933;SDS011;7039;52.168;9.866;2022-07-05T08:28:56;4.70;;;1.90;;
13933;SDS011;7039;52.168;9.866;2022-07-05T08:31:23;1.67;;;1.40;;
13933;SDS011;7039;52.168;9.866;2022-07-05T08:33:50;2.50;;;1.60;;
13933;SDS011;7039;52.168;9.866;2022-07-05T08:36:17;2.10;;;1.43;;
13933;SDS011;7039;52.168;9.866;2022-07-05T08:38:45;4.10;;;1.73;;
13933;SDS011;7039;52.168;9.866;2022-07-05T08:41:11;4.20;;;1.70;;
13933;SDS011;7039;52.168;9.866;2022-07-05T08:43:39;1.70;;;1.50;;
13933;SDS011;7039;52.168;9.866;2022-07-05T08:46:07;4.67;;;1.53;;
13933;SDS011;7039;52.168;9.866;2022-07-05T08:48:35;2.37;;;1.80;;
13933;SDS011;7039;52.168;9.866;2022-07-05T08:51:07;6.37;;;1.90;;
13933;SDS011;7039;52.168;9.866;2022-07-05T08:53:37;5.70;;;1.60;;
13933;SDS011;7039;52.168;9.866;2022-07-05T08:56:05;3.67;;;1.80;;
13933;SDS011;7039;52.168;9.866;2022-07-05T08:58:33;2.10;;;1.50;;
13933;SDS011;7039;52.168;9.866;2022-07-05T09:00:59;2.37;;;1.57;;
13933;SDS011;7039;52.168;9.866;2022-07-05T09:03:28;3.17;;;1.90;;
13933;SDS011;7039;52.168;9.866;2022-07-05T09:05:59;2.37;;;1.50;;
13933;SDS011;7039;52.168;9.866;2022-07-05T09:08:27;4.10;;;1.70;;
13933;SDS011;7039;52.168;9.866;2022-07-05T09:10:57;3.80;;;1.67;;
13933;SDS011;7039;52.168;9.866;2022-07-05T09:13:27;6.30;;;1.50;;
13933;SDS011;7039;52.168;9.866;2022-07-05T09:15:53;3.90;;;1.53;;
13933;SDS011;7039;52.168;9.866;2022-07-05T09:18:43;1.87;;;1.43;;
13933;SDS011;7039;52.168;9.866;2022-07-05T09:21:11;1.87;;;1.33;;
13933;SDS011;7039;52.168;9.866;2022-07-05T09:23:42;1.83;;;1.40;;
13933;SDS011;7039;52.168;9.866;2022-07-05T09:26:09;1.30;;;1.20;;
13933;SDS011;7039;52.168;9.866;2022-07-05T09:28:37;5.13;;;1.70;;
13933;SDS011;7039;52.168;9.866;2022-07-05T09:31:25;3.53;;;1.50;;
13933;SDS011;7039;52.168;9.866;2022-07-05T09:33:52;3.67;;;1.40;;
13933;SDS011;7039;52.168;9.866;2022-07-05T09:38:49;2.73;;;1.37;;
13933;SDS011;7039;52.168;9.866;2022-07-05T09:41:16;1.70;;;1.30;;
13933;SDS011;7039;52.168;9.866;2022-07-05T09:43:44;4.47;;;1.77;;
13933;SDS011;7039;52.168;9.866;2022-07-05T09:46:11;2.23;;;1.43;;
13933;SDS011;7039;52.168;9.866;2022-07-05T09:48:50;2.93;;;1.70;;
13933;SDS011;7039;52.168;9.866;2022-07-05T09:51:17;2.03;;;1.37;;
13933;SDS011;7039;52.168;9.866;2022-07-05T09:53:44;3.93;;;1.67;;
13933;SDS011;7039;52.168;9.866;2022-07-05T09:56:12;3.67;;;1.47;;
13933;SDS011;7039;52.168;9.866;2022-07-05T09:58:38;4.40;;;1.73;;
13933;SDS011;7039;52.168;9.866;2022-07-05T10:01:10;3.90;;;1.70;;
13933;SDS011;7039;52.168;9.866;2022-07-05T10:03:52;3.73;;;1.50;;
13933;SDS011;7039;52.168;9.866;2022-07-05T10:06:19;3.30;;;1.33;;
13933;SDS011;7039;52.168;9.866;2022-07-05T10:08:47;3.13;;;1.40;;
13933;SDS011;7039;52.168;9.866;2022-07-05T10:11:14;2.47;;;1.50;;
13933;SDS011;7039;52.168;9.866;2022-07-05T10:13:42;4.40;;;1.67;;
13933;SDS011;7039;52.168;9.866;2022-07-05T10:16:12;2.10;;;1.60;;
13933;SDS011;7039;52.168;9.866;2022-07-05T10:18:39;2.57;;;1.47;;
13933;SDS011;7039;52.168;9.866;2022-07-05T10:21:07;4.00;;;1.50;;
13933;SDS011;7039;52.168;9.866;2022-07-05T10:23:38;2.73;;;1.53;;
13933;SDS011;7039;52.168;9.866;2022-07-05T10:26:08;1.30;;;1.20;;
13933;SDS011;7039;52.168;9.866;2022-07-05T10:28:36;2.50;;;1.57;;
13933;SDS011;7039;52.168;9.866;2022-07-05T10:31:05;2.00;;;1.70;;
13933;SDS011;7039;52.168;9.866;2022-07-05T10:33:35;2.73;;;1.50;;
13933;SDS011;7039;52.168;9.866;2022-07-05T10:36:02;4.80;;;1.43;;
13933;SDS011;7039;52.168;9.866;2022-07-05T10:38:31;3.00;;;1.33;;
13933;SDS011;7039;52.168;9.866;2022-07-05T10:41:02;5.43;;;1.50;;
13933;SDS011;7039;52.168;9.866;2022-07-05T10:43:31;3.43;;;1.40;;
13933;SDS011;7039;52.168;9.866;2022-07-05T10:45:58;4.27;;;1.60;;
13933;SDS011;7039;52.168;9.866;2022-07-05T10:48:25;1.60;;;1.27;;
13933;SDS011;7039;52.168;9.866;2022-07-05T10:50:54;8.67;;;1.80;;
13933;SDS011;7039;52.168;9.866;2022-07-05T10:53:23;2.70;;;1.30;;
13933;SDS011;7039;52.168;9.866;2022-07-05T10:56:00;2.37;;;1.23;;
13933;SDS011;7039;52.168;9.866;2022-07-05T10:58:38;2.77;;;1.30;;
13933;SDS011;7039;52.168;9.866;2022-07-05T11:07:05;1.40;;;1.30;;
13933;SDS011;7039;52.168;9.866;2022-07-05T11:09:33;2.33;;;1.33;;
13933;SDS011;7039;52.168;9.866;2022-07-05T11:12:06;1.53;;;1.43;;
13933;SDS011;7039;52.168;9.866;2022-07-05T11:14:38;2.83;;;1.30;;
13933;SDS011;7039;52.168;9.866;2022-07-05T11:17:15;1.73;;;1.30;;
13933;SDS011;7039;52.168;9.866;2022-07-05T11:25:28;2.10;;;1.37;;
13933;SDS011;7039;52.168;9.866;2022-07-05T11:27:59;1.30;;;1.20;;
13933;SDS011;7039;52.168;9.866;2022-07-05T11:30:27;4.63;;;1.37;;
13933;SDS011;7039;52.168;9.866;2022-07-05T11:32:53;4.17;;;1.10;;
13933;SDS011;7039;52.168;9.866;2022-07-05T11:35:20;1.43;;;1.20;;
13933;SDS011;7039;52.168;9.866;2022-07-05T11:38:02;2.77;;;1.60;;
13933;SDS011;7039;52.168;9.866;2022-07-05T11:40:31;3.40;;;1.37;;
13933;SDS011;7039;52.168;9.866;2022-07-05T11:43:00;2.33;;;1.40;;
13933;SDS011;7039;52.168;9.866;2022-07-05T11:45:28;1.37;;;1.20;;
13933;SDS011;7039;52.168;9.866;2022-07-05T11:47:55;1.67;;;1.27;;
13933;SDS011;7039;52.168;9.866;2022-07-05T11:50:29;4.17;;;1.40;;
13933;SDS011;7039;52.168;9.866;2022-07-05T11:52:57;3.00;;;1.20;;
13933;SDS011;7039;52.168;9.866;2022-07-05T11:55:27;1.63;;;1.10;;
13933;SDS011;7039;52.168;9.866;2022-07-05T11:57:55;2.73;;;1.10;;
13933;SDS011;7039;52.168;9.866;2022-07-05T12:00:27;2.80;;;1.17;;
13933;SDS011;7039;52.168;9.866;2022-07-05T12:02:54;2.40;;;1.47;;
13933;SDS011;7039;52.168;9.866;2022-07-05T12:05:21;1.63;;;1.10;;
13933;SDS011;7039;52.168;9.866;2022-07-05T12:07:48;1.27;;;1.17;;
13933;SDS011;7039;52.168;9.866;2022-07-05T12:10:17;1.50;;;1.07;;
13933;SDS011;7039;52.168;9.866;2022-07-05T12:13:05;1.30;;;1.17;;
13933;SDS011;7039;52.168;9.866;2022-07-05T12:15:33;4.33;;;1.10;;
13933;SDS011;7039;52.168;9.866;2022-07-05T12:18:00;1.20;;;1.10;;
13933;SDS011;7039;52.168;9.866;2022-07-05T12:20:29;1.03;;;0.93;;
13933;SDS011;7039;52.168;9.866;2022-07-05T12:22:57;1.20;;;1.10;;
13933;SDS011;7039;52.168;9.866;2022-07-05T12:25:26;3.40;;;1.30;;
13933;SDS011;7039;52.168;9.866;2022-07-05T12:27:55;2.17;;;1.40;;
13933;SDS011;7039;52.168;9.866;2022-07-05T12:30:23;1.73;;;1.20;;
13933;SDS011;7039;52.168;9.866;2022-07-05T12:32:53;1.20;;;1.10;;
13933;SDS011;7039;52.168;9.866;2022-07-05T12:35:31;1.83;;;1.20;;
13933;SDS011;7039;52.168;9.866;2022-07-05T12:38:06;1.07;;;0.97;;
13933;SDS011;7039;52.168;9.866;2022-07-05T12:40:36;1.30;;;1.20;;
13933;SDS011;7039;52.168;9.866;2022-07-05T12:43:05;1.43;;;0.90;;
13933;SDS011;7039;52.168;9.866;2022-07-05T12:45:33;3.70;;;1.27;;
13933;SDS011;7039;52.168;9.866;2022-07-05T12:48:00;1.27;;;1.03;;
13933;SDS011;7039;52.168;9.866;2022-07-05T12:50:28;1.40;;;1.07;;
13933;SDS011;7039;52.168;9.866;2022-07-05T12:52:57;0.90;;;0.90;;
13933;SDS011;7039;52.168;9.866;2022-07-05T12:55:25;3.00;;;1.30;;
13933;SDS011;7039;52.168;9.866;2022-07-05T12:58:18;3.65;;;1.30;;
13933;SDS011;7039;52.168;9.866;2022-07-05T13:00:45;2.90;;;1.30;;
13933;SDS011;7039;52.168;9.866;2022-07-05T13:03:12;1.95;;;1.05;;
13933;SDS011;7039;52.168;9.866;2022-07-05T13:05:38;1.27;;;0.82;;
13933;SDS011;7039;52.168;9.866;2022-07-05T13:08:05;1.10;;;1.00;;
13933;SDS011;7039;52.168;9.866;2022-07-05T13:10:31;2.17;;;0.90;;
13933;SDS011;7039;52.168;9.866;2022-07-05T13:12:58;3.58;;;1.02;;
13933;SDS011;7039;52.168;9.866;2022-07-05T13:15:25;1.38;;;1.00;;
13933;SDS011;7039;52.168;9.866;2022-07-05T13:17:52;2.58;;;0.95;;
13933;SDS011;7039;52.168;9.866;2022-07-05T13:20:19;3.60;;;1.00;;
13933;SDS011;7039;52.168;9.866;2022-07-05T13:22:48;3.88;;;1.00;;
13933;SDS011;7039;52.168;9.866;2022-07-05T13:25:15;1.40;;;1.10;;
13933;SDS011;7039;52.168;9.866;2022-07-05T13:27:41;1.13;;;0.90;;
13933;SDS011;7039;52.168;9.866;2022-07-05T13:30:08;0.95;;;0.90;;
13933;SDS011;7039;52.168;9.866;2022-07-05T13:32:37;3.50;;;1.00;;
13933;SDS011;7039;52.168;9.866;2022-07-05T13:35:04;5.50;;;1.92;;
13933;SDS011;7039;52.168;9.866;2022-07-05T13:37:31;1.08;;;1.00;;
13933;SDS011;7039;52.168;9.866;2022-07-05T13:39:57;4.72;;;0.88;;
13933;SDS011;7039;52.168;9.866;2022-07-05T13:42:24;1.35;;;1.00;;
13933;SDS011;7039;52.168;9.866;2022-07-05T13:44:50;5.35;;;1.02;;
13933;SDS011;7039;52.168;9.866;2022-07-05T13:47:17;2.00;;;1.08;;
13933;SDS011;7039;52.168;9.866;2022-07-05T13:49:45;1.63;;;1.08;;
13933;SDS011;7039;52.168;9.866;2022-07-05T13:52:11;3.58;;;1.15;;
13933;SDS011;7039;52.168;9.866;2022-07-05T13:54:38;3.75;;;1.20;;
13933;SDS011;7039;52.168;9.866;2022-07-05T13:57:07;1.50;;;0.90;;
13933;SDS011;7039;52.168;9.866;2022-07-05T13:59:33;2.22;;;1.08;;
13933;SDS011;7039;52.168;9.866;2022-07-05T14:02:00;4.50;;;1.00;;
13933;SDS011;7039;52.168;9.866;2022-07-05T14:04:26;1.92;;;0.95;;
13933;SDS011;7039;52.168;9.866;2022-07-05T14:06:56;2.38;;;0.95;;
13933;SDS011;7039;52.168;9.866;2022-07-05T14:09:23;1.33;;;1.20;;
13933;SDS011;7039;52.168;9.866;2022-07-05T14:11:51;3.08;;;1.08;;
13933;SDS011;7039;52.168;9.866;2022-07-05T14:14:17;3.58;;;1.00;;
13933;SDS011;7039;52.168;9.866;2022-07-05T14:16:44;2.08;;;1.08;;
13933;SDS011;7039;52.168;9.866;2022-07-05T14:19:10;1.98;;;1.08;;
13933;SDS011;7039;52.168;9.866;2022-07-05T14:21:37;3.15;;;1.00;;
13933;SDS011;7039;52.168;9.866;2022-07-05T14:24:05;4.63;;;1.23;;
13933;SDS011;7039;52.168;9.866;2022-07-05T14:26:32;2.78;;;1.02;;
13933;SDS011;7039;52.168;9.866;2022-07-05T14:28:59;5.07;;;1.20;;
13933;SDS011;7039;52.168;9.866;2022-07-05T14:31:26;2.10;;;1.05;;
13933;SDS011;7039;52.168;9.866;2022-07-05T14:33:55;0.90;;;0.90;;
13933;SDS011;7039;52.168;9.866;2022-07-05T14:36:22;3.92;;;0.90;;
13933;SDS011;7039;52.168;9.866;2022-07-05T14:38:49;1.15;;;0.90;;
13933;SDS011;7039;52.168;9.866;2022-07-05T14:41:17;2.03;;;1.00;;
13933;SDS011;7039;52.168;9.866;2022-07-05T14:43:44;2.60;;;1.05;;
13933;SDS011;7039;52.168;9.866;2022-07-05T14:46:10;1.00;;;0.88;;
13933;SDS011;7039;52.168;9.866;2022-07-05T14:48:42;5.85;;;1.20;;
13933;SDS011;7039;52.168;9.866;2022-07-05T14:51:09;3.83;;;1.30;;
13933;SDS011;7039;52.168;9.866;2022-07-05T14:53:36;2.53;;;1.00;;
13933;SDS011;7039;52.168;9.866;2022-07-05T14:56:02;11.65;;;1.20;;
13933;SDS011;7039;52.168;9.866;2022-07-05T14:58:30;1.70;;;0.82;;
13933;SDS011;7039;52.168;9.866;2022-07-05T15:00:57;1.73;;;1.10;;
13933;SDS011;7039;52.168;9.866;2022-07-05T15:03:24;2.15;;;1.30;;
13933;SDS011;7039;52.168;9.866;2022-07-05T15:05:50;3.10;;;1.10;;
13933;SDS011;7039;52.168;9.866;2022-07-05T15:08:17;2.70;;;1.02;;
13933;SDS011;7039;52.168;9.866;2022-07-05T15:10:44;2.45;;;1.02;;
13933;SDS011;7039;52.168;9.866;2022-07-05T15:13:11;3.42;;;1.13;;
13933;SDS011;7039;52.168;9.866;2022-07-05T15:15:39;1.67;;;1.05;;
13933;SDS011;7039;52.168;9.866;2022-07-05T15:18:06;3.63;;;0.85;;
13933;SDS011;7039;52.168;9.866;2022-07-05T15:20:32;7.30;;;1.00;;
13933;SDS011;7039;52.168;9.866;2022-07-05T15:22:59;2.35;;;0.98;;
13933;SDS011;7039;52.168;9.866;2022-07-05T15:25:25;2.50;;;1.10;;
13933;SDS011;7039;52.168;9.866;2022-07-05T15:27:52;2.83;;;1.00;;
13933;SDS011;7039;52.168;9.866;2022-07-05T15:30:18;5.53;;;1.05;;
13933;SDS011;7039;52.168;9.866;2022-07-05T15:32:49;1.00;;;0.90;;
13933;SDS011;7039;52.168;9.866;2022-07-05T15:35:15;1.30;;;1.17;;
13933;SDS011;7039;52.168;9.866;2022-07-05T15:37:42;2.45;;;1.00;;
13933;SDS011;7039;52.168;9.866;2022-07-05T15:40:09;4.93;;;1.10;;
13933;SDS011;7039;52.168;9.866;2022-07-05T15:42:36;6.32;;;1.17;;
13933;SDS011;7039;52.168;9.866;2022-07-05T15:45:03;3.33;;;0.90;;
13933;SDS011;7039;52.168;9.866;2022-07-05T15:47:30;2.78;;;1.20;;
13933;SDS011;7039;52.168;9.866;2022-07-05T15:50:00;1.08;;;0.93;;
13933;SDS011;7039;52.168;9.866;2022-07-05T15:52:27;4.60;;;1.77;;
13933;SDS011;7039;52.168;9.866;2022-07-05T15:54:53;3.20;;;1.17;;
13933;SDS011;7039;52.168;9.866;2022-07-05T15:57:20;3.00;;;1.13;;
13933;SDS011;7039;52.168;9.866;2022-07-05T15:59:47;2.80;;;1.40;;
13933;SDS011;7039;52.168;9.866;2022-07-05T16:02:14;3.10;;;0.93;;
13933;SDS011;7039;52.168;9.866;2022-07-05T16:04:41;1.73;;;1.00;;
13933;SDS011;7039;52.168;9.866;2022-07-05T16:07:09;6.00;;;1.27;;
13933;SDS011;7039;52.168;9.866;2022-07-05T16:09:35;1.27;;;1.10;;
13933;SDS011;7039;52.168;9.866;2022-07-05T16:12:02;2.45;;;1.45;;
13933;SDS011;7039;52.168;9.866;2022-07-05T16:14:29;2.85;;;1.10;;
13933;SDS011;7039;52.168;9.866;2022-07-05T16:16:56;6.93;;;1.20;;
13933;SDS011;7039;52.168;9.866;2022-07-05T16:19:22;0.90;;;0.90;;
13933;SDS011;7039;52.168;9.866;2022-07-05T16:21:49;1.80;;;1.00;;
13933;SDS011;7039;52.168;9.866;2022-07-05T16:24:18;1.08;;;0.85;;
13933;SDS011;7039;52.168;9.866;2022-07-05T16:26:45;2.45;;;1.00;;
13933;SDS011;7039;52.168;9.866;2022-07-05T16:29:12;1.25;;;1.15;;
13933;SDS011;7039;52.168;9.866;2022-07-05T16:31:39;1.52;;;0.90;;
13933;SDS011;7039;52.168;9.866;2022-07-05T16:34:05;1.55;;;1.27;;
13933;SDS011;7039;52.168;9.866;2022-07-05T16:36:32;3.53;;;1.13;;
13933;SDS011;7039;52.168;9.866;2022-07-05T16:38:58;1.27;;;1.08;;
13933;SDS011;7039;52.168;9.866;2022-07-05T16:41:28;3.30;;;0.98;;
13933;SDS011;7039;52.168;9.866;2022-07-05T16:43:55;2.28;;;1.10;;
13933;SDS011;7039;52.168;9.866;2022-07-05T16:46:22;4.90;;;1.10;;
13933;SDS011;7039;52.168;9.866;2022-07-05T16:48:49;1.08;;;1.08;;
13933;SDS011;7039;52.168;9.866;2022-07-05T16:51:16;2.90;;;1.10;;
13933;SDS011;7039;52.168;9.866;2022-07-05T16:53:44;1.80;;;1.08;;
13933;SDS011;7039;52.168;9.866;2022-07-05T16:56:13;2.15;;;1.02;;
13933;SDS011;7039;52.168;9.866;2022-07-05T16:58:42;2.20;;;1.00;;
13933;SDS011;7039;52.168;9.866;2022-07-05T17:01:10;1.13;;;1.02;;
13933;SDS011;7039;52.168;9.866;2022-07-05T17:03:38;2.97;;;1.17;;
13933;SDS011;7039;52.168;9.866;2022-07-05T17:06:06;3.28;;;1.05;;
13933;SDS011;7039;52.168;9.866;2022-07-05T17:08:35;1.08;;;0.90;;
13933;SDS011;7039;52.168;9.866;2022-07-05T17:11:04;1.40;;;1.02;;
13933;SDS011;7039;52.168;9.866;2022-07-05T17:13:36;1.23;;;1.13;;
13933;SDS011;7039;52.168;9.866;2022-07-05T17:16:05;5.20;;;1.30;;
13933;SDS011;7039;52.168;9.866;2022-07-05T17:18:31;1.98;;;1.10;;
13933;SDS011;7039;52.168;9.866;2022-07-05T17:21:02;3.90;;;0.90;;
13933;SDS011;7039;52.168;9.866;2022-07-05T17:23:29;1.98;;;1.40;;
13933;SDS011;7039;52.168;9.866;2022-07-05T17:25:55;3.50;;;1.10;;
13933;SDS011;7039;52.168;9.866;2022-07-05T17:28:22;2.05;;;1.00;;
13933;SDS011;7039;52.168;9.866;2022-07-05T17:30:48;1.20;;;1.02;;
13933;SDS011;7039;52.168;9.866;2022-07-05T17:33:16;0.90;;;0.70;;
13933;SDS011;7039;52.168;9.866;2022-07-05T17:35:43;2.67;;;0.90;;
13933;SDS011;7039;52.168;9.866;2022-07-05T17:38:09;5.90;;;1.15;;
13933;SDS011;7039;52.168;9.866;2022-07-05T17:40:36;5.00;;;1.20;;
13933;SDS011;7039;52.168;9.866;2022-07-05T17:43:03;1.20;;;0.90;;
13933;SDS011;7039;52.168;9.866;2022-07-05T17:45:29;3.38;;;1.10;;
13933;SDS011;7039;52.168;9.866;2022-07-05T17:47:56;1.92;;;0.90;;
13933;SDS011;7039;52.168;9.866;2022-07-05T17:50:24;2.97;;;1.15;;
13933;SDS011;7039;52.168;9.866;2022-07-05T17:52:51;1.58;;;1.02;;
13933;SDS011;7039;52.168;9.866;2022-07-05T17:55:17;7.30;;;1.10;;
13933;SDS011;7039;52.168;9.866;2022-07-05T17:57:44;5.38;;;1.02;;
13933;SDS011;7039;52.168;9.866;2022-07-05T18:00:11;3.17;;;0.90;;
13933;SDS011;7039;52.168;9.866;2022-07-05T18:02:38;6.00;;;1.00;;
13933;SDS011;7039;52.168;9.866;2022-07-05T18:05:05;8.48;;;1.20;;
13933;SDS011;7039;52.168;9.866;2022-07-05T18:07:33;1.70;;;1.42;;
13933;SDS011;7039;52.168;9.866;2022-07-05T18:09:59;1.60;;;1.08;;
13933;SDS011;7039;52.168;9.866;2022-07-05T18:12:26;1.20;;;1.10;;
13933;SDS011;7039;52.168;9.866;2022-07-05T18:14:52;4.05;;;1.10;;
13933;SDS011;7039;52.168;9.866;2022-07-05T18:17:19;4.30;;;1.00;;
13933;SDS011;7039;52.168;9.866;2022-07-05T18:19:45;4.00;;;1.30;;
13933;SDS011;7039;52.168;9.866;2022-07-05T18:22:12;4.85;;;1.23;;
13933;SDS011;7039;52.168;9.866;2022-07-05T18:24:40;19.35;;;1.80;;
13933;SDS011;7039;52.168;9.866;2022-07-05T18:27:06;4.72;;;1.40;;
13933;SDS011;7039;52.168;9.866;2022-07-05T18:29:33;4.67;;;1.60;;
13933;SDS011;7039;52.168;9.866;2022-07-05T18:32:00;3.07;;;1.30;;
13933;SDS011;7039;52.168;9.866;2022-07-05T18:34:26;1.90;;;1.20;;
13933;SDS011;7039;52.168;9.866;2022-07-05T18:36:53;2.93;;;1.20;;
13933;SDS011;7039;52.168;9.866;2022-07-05T18:39:20;1.70;;;1.03;;
13933;SDS011;7039;52.168;9.866;2022-07-05T18:41:49;3.03;;;1.20;;
13933;SDS011;7039;52.168;9.866;2022-07-05T18:44:16;2.20;;;1.40;;
13933;SDS011;7039;52.168;9.866;2022-07-05T18:46:42;2.40;;;1.20;;
13933;SDS011;7039;52.168;9.866;2022-07-05T18:49:09;3.43;;;1.30;;
13933;SDS011;7039;52.168;9.866;2022-07-05T18:51:35;3.13;;;1.30;;
13933;SDS011;7039;52.168;9.866;2022-07-05T18:54:02;3.40;;;1.37;;
13933;SDS011;7039;52.168;9.866;2022-07-05T18:56:29;4.03;;;1.53;;
13933;SDS011;7039;52.168;9.866;2022-07-05T18:58:59;1.87;;;1.60;;
13933;SDS011;7039;52.168;9.866;2022-07-05T19:01:25;2.03;;;1.20;;